Stations météo

réclame
Mon MeteoGroup
St-Raphael, France (7680): Température de l'air & dewpoint: 16.10.2017 13:00:00 - 22.10.2017 13:00:00 (CEST)St-Raphael, France (7680): Vitesse du vent & gusts: 16.10.2017 13:00:00 - 22.10.2017 13:00:00 (CEST)St-Raphael, France (7680): Direction du vent: 16.10.2017 13:00:00 - 22.10.2017 13:00:00 (CEST)St-Raphael, France (7680): Quantités de précipitations: 16.10.2017 13:00:00 - 22.10.2017 13:00:00 (CEST)
Date & Time tt [°C] td [°C] ff [km/h] ff [knt] fx [km/h] fx [knt] dd rr [mm]
22.10.2017 13:00:00 21,5 0,6 39 21 80 43 WNW 0,0
22.10.2017 12:00:00 20,4 2,2 35 19 72 39 W 0,0
22.10.2017 11:00:00 18,8 3,0 35 19 65 35 W 0,0
22.10.2017 10:00:00 17,5 4,4 31 17 57 31 W 0,0
22.10.2017 09:00:00 16,1 5,4 29 16 65 35 W 0,0
22.10.2017 08:00:00 16,1 5,4 35 19 63 34 W -
22.10.2017 07:00:00 17,1 5,1 28 15 52 28 W 0,0
22.10.2017 06:00:00 17,8 5,7 29 16 55 30 W 0,0
22.10.2017 05:00:00 18,0 7,1 24 13 46 25 W 0,0
22.10.2017 04:00:00 18,7 9,2 22 12 50 27 W 0,0
22.10.2017 03:00:00 19,0 11,6 34 18 52 28 W 0,0
22.10.2017 02:00:00 19,3 13,0 28 15 52 28 W -
22.10.2017 01:00:00 19,8 14,4 18 10 37 20 W 0,0
22.10.2017 00:00:00 19,9 14,5 18 10 46 25 W 0,0
21.10.2017 23:00:00 20,0 14,6 21 11 39 21 WSW 0,0
21.10.2017 22:00:00 20,9 14,5 21 11 35 19 W 0,0
21.10.2017 21:00:00 21,6 14,3 13 7 34 18 W 0,0
21.10.2017 20:00:00 21,4 14,8 8 4 22 12 SW -
21.10.2017 19:00:00 22,2 15,5 15 8 26 14 SW 0,0
21.10.2017 18:00:00 23,8 15,6 11 6 35 19 SSW 0,0
21.10.2017 17:00:00 24,5 16,2 15 8 34 18 S 0,0
21.10.2017 16:00:00 26,3 16,0 16 9 35 19 S 0,0
21.10.2017 15:00:00 25,9 16,4 16 9 34 18 S 0,0
21.10.2017 14:00:00 24,6 17,1 15 8 34 18 SSE -
21.10.2017 13:00:00 24,9 15,5 15 8 28 15 S 0,0
21.10.2017 12:00:00 22,6 15,2 9 5 18 10 SSE 0,0
21.10.2017 11:00:00 20,6 14,0 8 4 16 9 WNW 0,0
21.10.2017 10:00:00 16,4 13,9 5 3 13 7 NW 0,0
21.10.2017 09:00:00 12,2 11,3 4 2 8 4 W 0,2
21.10.2017 08:00:00 10,9 10,1 4 2 9 5 W -
21.10.2017 07:00:00 11,0 10,2 4 2 5 3 NW 0,0
21.10.2017 06:00:00 11,5 10,6 4 2 9 5 WNW 0,0
21.10.2017 05:00:00 12,3 11,4 4 2 8 4 WNW 0,0
21.10.2017 04:00:00 13,0 11,9 2 1 15 8 NW 0,0
21.10.2017 03:00:00 13,0 12,1 4 2 9 5 WNW 0,0
21.10.2017 02:00:00 13,4 12,1 4 2 9 5 W -
21.10.2017 01:00:00 14,0 12,0 4 2 9 5 WNW 0,0
21.10.2017 00:00:00 14,3 12,7 2 1 9 5 WNW 0,0
20.10.2017 23:00:00 15,1 13,0 2 1 9 5 NNW 0,0
20.10.2017 22:00:00 16,1 14,3 4 2 9 5 NNW 0,0
20.10.2017 21:00:00 17,0 15,2 4 2 8 4 NNW 0,0
20.10.2017 20:00:00 17,3 15,1 0 0 9 5 N -
20.10.2017 19:00:00 19,2 15,9 4 2 13 7 ESE 0,0
20.10.2017 18:00:00 20,0 15,6 8 4 18 10 ESE 0,0
20.10.2017 17:00:00 21,0 15,5 9 5 21 11 SE 0,0
20.10.2017 16:00:00 22,0 15,4 11 6 24 13 SE 0,0
20.10.2017 15:00:00 22,1 15,2 11 6 26 14 SE 0,0
20.10.2017 14:00:00 22,5 13,6 15 8 28 15 SE -
20.10.2017 13:00:00 23,0 13,2 13 7 24 13 ESE 0,0
20.10.2017 12:00:00 22,9 11,6 11 6 31 17 E 0,0
20.10.2017 11:00:00 22,5 10,6 15 8 29 16 ENE 0,0
20.10.2017 10:00:00 20,0 10,7 8 4 18 10 WSW 0,0
20.10.2017 09:00:00 15,5 10,7 5 3 9 5 WNW 0,0
20.10.2017 08:00:00 14,2 10,4 4 2 13 7 NW -
20.10.2017 07:00:00 13,7 10,5 5 3 13 7 NW 0,0
20.10.2017 06:00:00 14,0 10,6 2 1 9 5 WNW 0,0
20.10.2017 05:00:00 15,9 11,1 5 3 15 8 NW 0,0
20.10.2017 04:00:00 17,0 11,5 4 2 13 7 NNE 0,0
20.10.2017 03:00:00 17,8 11,8 5 3 22 12 WNW 0,0
20.10.2017 02:00:00 17,5 11,7 4 2 16 9 NNE -
20.10.2017 01:00:00 17,5 11,1 4 2 18 10 NNE 0,0
20.10.2017 00:00:00 18,5 11,3 5 3 21 11 N 0,0
19.10.2017 23:00:00 18,6 13,2 4 2 24 13 NNE 0,0
19.10.2017 22:00:00 18,9 13,7 5 3 26 14 NE 0,0
19.10.2017 21:00:00 18,9 14,4 9 5 34 18 ENE 0,0
19.10.2017 20:00:00 19,2 14,2 11 6 26 14 ENE -
19.10.2017 19:00:00 19,6 14,0 13 7 35 19 ENE 0,0
19.10.2017 18:00:00 20,0 13,7 21 11 42 23 E 0,0
19.10.2017 17:00:00 20,6 14,0 16 9 42 23 E 0,0
19.10.2017 16:00:00 21,8 14,2 21 11 42 23 ENE 0,0
19.10.2017 15:00:00 21,7 14,6 16 9 46 25 ENE 0,0
19.10.2017 14:00:00 22,1 14,7 18 10 44 24 ENE -
19.10.2017 13:00:00 21,6 14,0 18 10 37 20 ENE 0,0
19.10.2017 12:00:00 21,5 14,4 16 9 41 22 ENE 0,0
19.10.2017 11:00:00 20,2 14,1 11 6 35 19 ENE 0,0
19.10.2017 10:00:00 19,7 14,3 11 6 34 18 ENE 0,0
19.10.2017 09:00:00 18,7 14,6 5 3 16 9 NNE 0,0
19.10.2017 08:00:00 16,6 13,5 4 2 15 8 NNE -
19.10.2017 07:00:00 17,6 14,1 4 2 15 8 NE 0,0
19.10.2017 06:00:00 17,9 14,4 4 2 21 11 N 0,0
19.10.2017 05:00:00 18,1 14,6 9 5 22 12 ENE 0,0
19.10.2017 04:00:00 18,1 14,8 5 3 22 12 ENE 0,0
19.10.2017 03:00:00 15,9 14,3 2 1 9 5 ENE 0,0
19.10.2017 02:00:00 15,2 13,4 2 1 8 4 NW -
19.10.2017 01:00:00 14,8 13,2 4 2 8 4 NW 0,0
19.10.2017 00:00:00 15,1 13,1 4 2 8 4 NW 0,0
18.10.2017 23:00:00 15,4 13,2 4 2 8 4 NW 0,0
18.10.2017 22:00:00 15,7 13,4 4 2 8 4 WNW 0,0
18.10.2017 21:00:00 16,8 13,9 4 2 8 4 N 0,0
18.10.2017 20:00:00 17,9 14,4 2 1 11 6 NNE -
18.10.2017 19:00:00 18,5 14,8 4 2 21 11 E 0,0
18.10.2017 18:00:00 19,0 14,7 11 6 26 14 E 0,0
18.10.2017 17:00:00 20,0 14,8 13 7 28 15 SE 0,0
18.10.2017 16:00:00 20,4 15,0 13 7 28 15 SE 0,0
18.10.2017 15:00:00 20,7 14,8 15 8 29 16 SE 0,0
18.10.2017 14:00:00 20,7 14,3 13 7 28 15 ESE -
18.10.2017 13:00:00 20,3 14,0 13 7 26 14 SE 0,0
18.10.2017 12:00:00 20,8 14,0 8 4 15 8 SSE 0,0
18.10.2017 11:00:00 17,0 12,1 5 3 11 6 WNW 0,0
18.10.2017 10:00:00 13,8 11,0 8 4 15 8 NW 0,0
18.10.2017 09:00:00 11,9 9,6 8 4 15 8 NW 0,0
18.10.2017 08:00:00 10,8 9,1 8 4 16 9 NW -
18.10.2017 07:00:00 10,7 9,1 8 4 16 9 WNW 0,0
18.10.2017 06:00:00 10,6 9,7 8 4 15 8 WNW 0,2
18.10.2017 05:00:00 10,9 9,5 5 3 18 10 NW 0,0
18.10.2017 04:00:00 11,6 9,5 8 4 16 9 NW 0,0
18.10.2017 03:00:00 10,9 9,5 4 2 13 7 NW 0,0
18.10.2017 02:00:00 10,6 9,0 5 3 11 6 NW -
18.10.2017 01:00:00 11,0 9,3 4 2 9 5 WNW 0,0
18.10.2017 00:00:00 11,9 10,6 4 2 9 5 NNW 0,0
17.10.2017 23:00:00 12,4 10,3 4 2 9 5 WNW 0,0
17.10.2017 22:00:00 13,4 11,5 4 2 8 4 NW 0,0
17.10.2017 21:00:00 14,9 13,1 0 0 8 4 N 0,0
17.10.2017 20:00:00 15,8 14,2 0 0 8 4 N -
17.10.2017 19:00:00 18,0 14,5 4 2 11 6 SE 0,0
17.10.2017 18:00:00 19,3 15,0 8 4 16 9 SE 0,0
17.10.2017 17:00:00 19,8 15,0 8 4 21 11 SE 0,0
17.10.2017 16:00:00 20,5 15,7 9 5 22 12 SSE 0,0
17.10.2017 15:00:00 20,9 15,2 11 6 24 13 SE 0,0
17.10.2017 14:00:00 20,6 15,2 9 5 22 12 SE -
17.10.2017 13:00:00 20,9 13,3 8 4 13 7 SE 0,0
17.10.2017 12:00:00 20,7 12,9 4 2 13 7 SSE 0,0
17.10.2017 11:00:00 16,0 11,4 8 4 - - WNW 0,0
17.10.2017 10:00:00 12,5 11,9 5 3 - - NW 0,0
17.10.2017 09:00:00 12,2 11,7 8 4 15 8 NW 0,0
17.10.2017 08:00:00 12,2 11,6 5 3 16 9 N -
17.10.2017 07:00:00 12,7 12,1 4 2 13 7 NNW 0,0
17.10.2017 06:00:00 12,7 12,1 5 3 18 10 N 0,0
17.10.2017 05:00:00 12,5 11,7 8 4 16 9 NNW 0,0
17.10.2017 04:00:00 12,7 11,3 8 4 16 9 NW 0,0
17.10.2017 03:00:00 13,5 11,7 8 4 16 9 NW 0,0
17.10.2017 02:00:00 13,8 12,2 5 3 11 6 NW -
17.10.2017 01:00:00 13,4 12,1 4 2 11 6 WNW 0,0
17.10.2017 00:00:00 14,0 12,6 4 2 8 4 NW 0,0
16.10.2017 23:00:00 15,8 14,0 4 2 11 6 N 0,0
16.10.2017 22:00:00 16,8 15,1 4 2 - - N 0,0
16.10.2017 21:00:00 17,4 15,4 5 3 16 9 NNE 0,0
16.10.2017 20:00:00 18,5 16,3 8 4 16 9 ENE -
16.10.2017 19:00:00 19,4 16,4 8 4 18 10 E 0,0
16.10.2017 18:00:00 20,5 16,7 9 5 22 12 ESE 0,0
16.10.2017 17:00:00 21,3 16,5 11 6 24 13 SSE 0,0
16.10.2017 16:00:00 21,9 16,4 11 6 26 14 SSE 0,0
16.10.2017 15:00:00 21,5 15,8 15 8 28 15 SSE 0,0
16.10.2017 14:00:00 22,0 15,6 11 6 18 10 SSE -
16.10.2017 13:00:00 21,8 15,2 8 4 15 8 SE 0,0

tt = Température de l'air
td = dewpoint
ff = Vitesse du vent
fx = gusts
dd = Direction du vent
rr = Quantités de précipitations

stations d'obs. à proximité